sensor_id;sensor_type;location;lat;lon;timestamp;temperature;humidity
66586;SHT30;53444;45.822;16.092;2023-08-24T00:00:48;26.08;79.77
66586;SHT30;53444;45.822;16.092;2023-08-24T00:03:14;25.87;80.56
66586;SHT30;53444;45.822;16.092;2023-08-24T00:05:41;26.03;80.26
66586;SHT30;53444;45.822;16.092;2023-08-24T00:08:08;26.08;80.25
66586;SHT30;53444;45.822;16.092;2023-08-24T00:10:35;26.21;79.47
66586;SHT30;53444;45.822;16.092;2023-08-24T00:13:02;26.33;79.15
66586;SHT30;53444;45.822;16.092;2023-08-24T00:15:29;26.06;79.33
66586;SHT30;53444;45.822;16.092;2023-08-24T00:17:57;25.69;80.34
66586;SHT30;53444;45.822;16.092;2023-08-24T00:20:24;25.74;80.13
66586;SHT30;53444;45.822;16.092;2023-08-24T00:22:52;25.79;80.09
66586;SHT30;53444;45.822;16.092;2023-08-24T00:25:19;25.93;79.60
66586;SHT30;53444;45.822;16.092;2023-08-24T00:27:45;25.87;79.80
66586;SHT30;53444;45.822;16.092;2023-08-24T00:30:12;25.69;80.53
66586;SHT30;53444;45.822;16.092;2023-08-24T00:32:39;25.56;80.85
66586;SHT30;53444;45.822;16.092;2023-08-24T00:35:08;25.67;80.36
66586;SHT30;53444;45.822;16.092;2023-08-24T00:37:36;25.73;80.01
66586;SHT30;53444;45.822;16.092;2023-08-24T00:40:04;25.84;79.65
66586;SHT30;53444;45.822;16.092;2023-08-24T00:42:37;25.86;79.37
66586;SHT30;53444;45.822;16.092;2023-08-24T00:45:04;25.96;78.89
66586;SHT30;53444;45.822;16.092;2023-08-24T00:47:31;25.97;78.70
66586;SHT30;53444;45.822;16.092;2023-08-24T00:49:59;26.04;78.68
66586;SHT30;53444;45.822;16.092;2023-08-24T00:52:29;25.84;79.20
66586;SHT30;53444;45.822;16.092;2023-08-24T00:54:58;25.89;79.11
66586;SHT30;53444;45.822;16.092;2023-08-24T00:57:25;25.98;78.95
66586;SHT30;53444;45.822;16.092;2023-08-24T00:59:52;26.07;78.78
66586;SHT30;53444;45.822;16.092;2023-08-24T01:02:19;26.03;78.85
66586;SHT30;53444;45.822;16.092;2023-08-24T01:04:46;25.83;79.01
66586;SHT30;53444;45.822;16.092;2023-08-24T01:07:13;25.56;80.11
66586;SHT30;53444;45.822;16.092;2023-08-24T01:09:41;25.74;79.56
66586;SHT30;53444;45.822;16.092;2023-08-24T01:12:15;25.89;78.67
66586;SHT30;53444;45.822;16.092;2023-08-24T01:14:47;25.96;78.33
66586;SHT30;53444;45.822;16.092;2023-08-24T01:17:21;25.98;78.18
66586;SHT30;53444;45.822;16.092;2023-08-24T01:19:49;26.03;78.00
66586;SHT30;53444;45.822;16.092;2023-08-24T01:22:27;26.08;77.73
66586;SHT30;53444;45.822;16.092;2023-08-24T01:25:05;25.98;77.73
66586;SHT30;53444;45.822;16.092;2023-08-24T01:27:36;26.03;77.51
66586;SHT30;53444;45.822;16.092;2023-08-24T01:30:03;26.06;77.65
66586;SHT30;53444;45.822;16.092;2023-08-24T01:32:30;25.92;78.35
66586;SHT30;53444;45.822;16.092;2023-08-24T01:34:58;26.01;78.29
66586;SHT30;53444;45.822;16.092;2023-08-24T01:37:25;26.10;78.23
66586;SHT30;53444;45.822;16.092;2023-08-24T01:40:00;26.06;78.66
66586;SHT30;53444;45.822;16.092;2023-08-24T01:42:34;25.97;78.46
66586;SHT30;53444;45.822;16.092;2023-08-24T01:45:06;26.04;78.44
66586;SHT30;53444;45.822;16.092;2023-08-24T01:47:35;25.98;78.55
66586;SHT30;53444;45.822;16.092;2023-08-24T01:50:03;25.93;78.92
66586;SHT30;53444;45.822;16.092;2023-08-24T01:52:31;25.83;78.90
66586;SHT30;53444;45.822;16.092;2023-08-24T01:54:58;25.74;78.54
66586;SHT30;53444;45.822;16.092;2023-08-24T01:57:25;25.84;77.90
66586;SHT30;53444;45.822;16.092;2023-08-24T01:59:53;25.90;77.76
66586;SHT30;53444;45.822;16.092;2023-08-24T02:02:20;25.80;78.35
66586;SHT30;53444;45.822;16.092;2023-08-24T02:04:47;25.82;78.67
66586;SHT30;53444;45.822;16.092;2023-08-24T02:07:14;25.83;78.61
66586;SHT30;53444;45.822;16.092;2023-08-24T02:09:40;25.69;78.86
66586;SHT30;53444;45.822;16.092;2023-08-24T02:12:07;25.73;78.74
66586;SHT30;53444;45.822;16.092;2023-08-24T02:14:34;25.72;78.68
66586;SHT30;53444;45.822;16.092;2023-08-24T02:17:02;25.67;78.85
66586;SHT30;53444;45.822;16.092;2023-08-24T02:19:28;25.69;78.86
66586;SHT30;53444;45.822;16.092;2023-08-24T02:21:55;25.77;78.78
66586;SHT30;53444;45.822;16.092;2023-08-24T02:24:22;25.59;79.30
66586;SHT30;53444;45.822;16.092;2023-08-24T02:26:48;25.41;79.55
66586;SHT30;53444;45.822;16.092;2023-08-24T02:29:15;25.35;79.83
66586;SHT30;53444;45.822;16.092;2023-08-24T02:31:41;25.32;79.89
66586;SHT30;53444;45.822;16.092;2023-08-24T02:34:09;24.88;81.06
66586;SHT30;53444;45.822;16.092;2023-08-24T02:36:36;24.54;82.91
66586;SHT30;53444;45.822;16.092;2023-08-24T02:39:03;24.83;82.35
66586;SHT30;53444;45.822;16.092;2023-08-24T02:41:30;24.94;82.02
66586;SHT30;53444;45.822;16.092;2023-08-24T02:43:57;25.01;81.94
66586;SHT30;53444;45.822;16.092;2023-08-24T02:46:23;25.07;81.96
66586;SHT30;53444;45.822;16.092;2023-08-24T02:48:50;24.51;83.57
66586;SHT30;53444;45.822;16.092;2023-08-24T02:51:20;24.06;84.93
66586;SHT30;53444;45.822;16.092;2023-08-24T02:53:47;24.33;84.28
66586;SHT30;53444;45.822;16.092;2023-08-24T02:56:13;24.61;83.40
66586;SHT30;53444;45.822;16.092;2023-08-24T02:58:40;24.83;82.68
66586;SHT30;53444;45.822;16.092;2023-08-24T03:01:07;25.04;82.07
66586;SHT30;53444;45.822;16.092;2023-08-24T03:03:34;25.05;81.83
66586;SHT30;53444;45.822;16.092;2023-08-24T03:06:02;24.41;84.23
66586;SHT30;53444;45.822;16.092;2023-08-24T03:08:30;24.59;83.78
66586;SHT30;53444;45.822;16.092;2023-08-24T03:10:57;24.68;83.45
66586;SHT30;53444;45.822;16.092;2023-08-24T03:13:25;24.80;82.94
66586;SHT30;53444;45.822;16.092;2023-08-24T03:15:51;25.02;82.36
66586;SHT30;53444;45.822;16.092;2023-08-24T03:18:18;25.08;82.11
66586;SHT30;53444;45.822;16.092;2023-08-24T03:20:46;25.05;82.21
66586;SHT30;53444;45.822;16.092;2023-08-24T03:23:13;24.74;83.24
66586;SHT30;53444;45.822;16.092;2023-08-24T03:25:41;24.63;84.07
66586;SHT30;53444;45.822;16.092;2023-08-24T03:28:09;24.51;84.50
66586;SHT30;53444;45.822;16.092;2023-08-24T03:30:37;24.47;84.29
66586;SHT30;53444;45.822;16.092;2023-08-24T03:33:04;24.41;84.84
66586;SHT30;53444;45.822;16.092;2023-08-24T03:35:31;24.43;85.05
66586;SHT30;53444;45.822;16.092;2023-08-24T03:37:58;24.56;84.51
66586;SHT30;53444;45.822;16.092;2023-08-24T03:40:24;24.57;84.67
66586;SHT30;53444;45.822;16.092;2023-08-24T03:42:52;24.60;84.69
66586;SHT30;53444;45.822;16.092;2023-08-24T03:45:19;24.67;84.28
66586;SHT30;53444;45.822;16.092;2023-08-24T03:47:45;24.78;83.95
66586;SHT30;53444;45.822;16.092;2023-08-24T03:50:12;24.78;83.73
66586;SHT30;53444;45.822;16.092;2023-08-24T03:52:39;24.67;84.20
66586;SHT30;53444;45.822;16.092;2023-08-24T03:55:06;24.74;83.91
66586;SHT30;53444;45.822;16.092;2023-08-24T03:57:33;24.81;83.88
66586;SHT30;53444;45.822;16.092;2023-08-24T04:00:01;24.70;84.20
66586;SHT30;53444;45.822;16.092;2023-08-24T04:02:31;24.70;84.07
66586;SHT30;53444;45.822;16.092;2023-08-24T04:04:57;24.81;83.78
66586;SHT30;53444;45.822;16.092;2023-08-24T04:07:24;24.87;83.45
66586;SHT30;53444;45.822;16.092;2023-08-24T04:09:51;24.74;83.66
66586;SHT30;53444;45.822;16.092;2023-08-24T04:12:17;24.47;84.59
66586;SHT30;53444;45.822;16.092;2023-08-24T04:14:44;24.32;85.24
66586;SHT30;53444;45.822;16.092;2023-08-24T04:17:12;24.50;84.84
66586;SHT30;53444;45.822;16.092;2023-08-24T04:19:39;24.44;85.13
66586;SHT30;53444;45.822;16.092;2023-08-24T04:22:05;24.41;85.38
66586;SHT30;53444;45.822;16.092;2023-08-24T04:24:32;24.10;86.27
66586;SHT30;53444;45.822;16.092;2023-08-24T04:26:58;23.96;86.74
66586;SHT30;53444;45.822;16.092;2023-08-24T04:29:25;24.06;86.66
66586;SHT30;53444;45.822;16.092;2023-08-24T04:31:52;24.03;86.53
66586;SHT30;53444;45.822;16.092;2023-08-24T04:34:20;23.96;85.89
66586;SHT30;53444;45.822;16.092;2023-08-24T04:36:46;24.19;84.96
66586;SHT30;53444;45.822;16.092;2023-08-24T04:39:13;24.10;85.02
66586;SHT30;53444;45.822;16.092;2023-08-24T04:41:39;24.20;84.41
66586;SHT30;53444;45.822;16.092;2023-08-24T04:44:06;24.22;84.27
66586;SHT30;53444;45.822;16.092;2023-08-24T04:46:33;24.29;84.09
66586;SHT30;53444;45.822;16.092;2023-08-24T04:49:00;24.34;83.71
66586;SHT30;53444;45.822;16.092;2023-08-24T04:51:28;24.44;83.56
66586;SHT30;53444;45.822;16.092;2023-08-24T04:53:54;24.06;84.93
66586;SHT30;53444;45.822;16.092;2023-08-24T04:56:21;24.27;84.49
66586;SHT30;53444;45.822;16.092;2023-08-24T04:58:54;24.54;83.68
66586;SHT30;53444;45.822;16.092;2023-08-24T05:01:22;24.75;82.93
66586;SHT30;53444;45.822;16.092;2023-08-24T05:03:50;24.68;82.72
66586;SHT30;53444;45.822;16.092;2023-08-24T05:06:17;24.65;83.07
66586;SHT30;53444;45.822;16.092;2023-08-24T05:08:45;24.94;82.17
66586;SHT30;53444;45.822;16.092;2023-08-24T05:11:12;25.02;81.62
66586;SHT30;53444;45.822;16.092;2023-08-24T05:13:40;24.98;81.08
66586;SHT30;53444;45.822;16.092;2023-08-24T05:16:06;24.91;80.75
66586;SHT30;53444;45.822;16.092;2023-08-24T05:18:34;24.61;80.47
66586;SHT30;53444;45.822;16.092;2023-08-24T05:21:01;24.80;79.93
66586;SHT30;53444;45.822;16.092;2023-08-24T05:23:28;25.04;79.38
66586;SHT30;53444;45.822;16.092;2023-08-24T05:25:57;25.14;79.22
66586;SHT30;53444;45.822;16.092;2023-08-24T05:28:24;25.25;78.98
66586;SHT30;53444;45.822;16.092;2023-08-24T05:30:51;25.29;78.96
66586;SHT30;53444;45.822;16.092;2023-08-24T05:33:17;25.35;78.98
66586;SHT30;53444;45.822;16.092;2023-08-24T05:35:44;25.52;78.61
66586;SHT30;53444;45.822;16.092;2023-08-24T05:38:11;25.24;79.98
66586;SHT30;53444;45.822;16.092;2023-08-24T05:40:41;25.50;79.60
66586;SHT30;53444;45.822;16.092;2023-08-24T05:43:13;25.63;79.54
66586;SHT30;53444;45.822;16.092;2023-08-24T05:45:43;25.67;79.89
66586;SHT30;53444;45.822;16.092;2023-08-24T05:48:12;25.83;80.18
66586;SHT30;53444;45.822;16.092;2023-08-24T05:50:45;25.76;80.17
66586;SHT30;53444;45.822;16.092;2023-08-24T05:53:12;25.80;79.86
66586;SHT30;53444;45.822;16.092;2023-08-24T05:55:38;25.97;79.46
66586;SHT30;53444;45.822;16.092;2023-08-24T05:58:05;25.94;80.16
66586;SHT30;53444;45.822;16.092;2023-08-24T06:00:33;26.13;80.15
66586;SHT30;53444;45.822;16.092;2023-08-24T06:03:00;26.20;80.76
66586;SHT30;53444;45.822;16.092;2023-08-24T06:05:26;26.31;80.15
66586;SHT30;53444;45.822;16.092;2023-08-24T06:07:53;26.30;80.45
66586;SHT30;53444;45.822;16.092;2023-08-24T06:10:20;26.41;80.52
66586;SHT30;53444;45.822;16.092;2023-08-24T06:12:46;26.44;80.56
66586;SHT30;53444;45.822;16.092;2023-08-24T06:15:13;26.54;80.93
66586;SHT30;53444;45.822;16.092;2023-08-24T06:17:42;26.47;82.03
66586;SHT30;53444;45.822;16.092;2023-08-24T06:20:09;26.40;82.50
66586;SHT30;53444;45.822;16.092;2023-08-24T06:22:37;26.59;82.21
66586;SHT30;53444;45.822;16.092;2023-08-24T06:25:05;26.48;82.54
66586;SHT30;53444;45.822;16.092;2023-08-24T06:27:34;26.52;82.15
66586;SHT30;53444;45.822;16.092;2023-08-24T06:30:01;26.68;81.82
66586;SHT30;53444;45.822;16.092;2023-08-24T06:32:28;26.75;81.19
66586;SHT30;53444;45.822;16.092;2023-08-24T06:34:56;26.57;82.79
66586;SHT30;53444;45.822;16.092;2023-08-24T06:37:23;26.62;82.54
66586;SHT30;53444;45.822;16.092;2023-08-24T06:39:49;26.72;82.39
66586;SHT30;53444;45.822;16.092;2023-08-24T06:42:16;26.79;82.35
66586;SHT30;53444;45.822;16.092;2023-08-24T06:44:43;26.75;82.29
66586;SHT30;53444;45.822;16.092;2023-08-24T06:47:09;26.72;81.96
66586;SHT30;53444;45.822;16.092;2023-08-24T06:49:36;26.65;82.21
66586;SHT30;53444;45.822;16.092;2023-08-24T06:52:04;26.91;81.13
66586;SHT30;53444;45.822;16.092;2023-08-24T06:54:31;27.05;80.35
66586;SHT30;53444;45.822;16.092;2023-08-24T06:56:57;27.19;80.18
66586;SHT30;53444;45.822;16.092;2023-08-24T06:59:24;27.32;79.98
66586;SHT30;53444;45.822;16.092;2023-08-24T07:01:51;27.40;79.62
66586;SHT30;53444;45.822;16.092;2023-08-24T07:04:17;27.47;79.30
66586;SHT30;53444;45.822;16.092;2023-08-24T07:06:44;27.25;79.81
66586;SHT30;53444;45.822;16.092;2023-08-24T07:09:12;27.22;79.70
66586;SHT30;53444;45.822;16.092;2023-08-24T07:11:40;27.39;80.31
66586;SHT30;53444;45.822;16.092;2023-08-24T07:14:07;27.33;79.38
66586;SHT30;53444;45.822;16.092;2023-08-24T07:16:33;27.36;79.52
66586;SHT30;53444;45.822;16.092;2023-08-24T07:19:00;27.37;80.16
66586;SHT30;53444;45.822;16.092;2023-08-24T07:21:27;27.33;79.49
66586;SHT30;53444;45.822;16.092;2023-08-24T07:23:54;27.36;79.34
66586;SHT30;53444;45.822;16.092;2023-08-24T07:26:22;27.15;79.47
66586;SHT30;53444;45.822;16.092;2023-08-24T07:28:50;27.27;79.40
66586;SHT30;53444;45.822;16.092;2023-08-24T07:31:17;27.50;78.76
66586;SHT30;53444;45.822;16.092;2023-08-24T07:33:44;27.86;77.92
66586;SHT30;53444;45.822;16.092;2023-08-24T07:36:10;27.63;77.64
66586;SHT30;53444;45.822;16.092;2023-08-24T07:38:37;27.76;77.19
66586;SHT30;53444;45.822;16.092;2023-08-24T07:41:04;28.01;77.65
66586;SHT30;53444;45.822;16.092;2023-08-24T07:43:33;28.21;76.91
66586;SHT30;53444;45.822;16.092;2023-08-24T07:45:59;28.15;77.30
66586;SHT30;53444;45.822;16.092;2023-08-24T07:48:26;28.37;76.99
66586;SHT30;53444;45.822;16.092;2023-08-24T07:50:52;28.12;76.70
66586;SHT30;53444;45.822;16.092;2023-08-24T07:53:19;28.41;75.91
66586;SHT30;53444;45.822;16.092;2023-08-24T07:55:46;28.58;74.29
66586;SHT30;53444;45.822;16.092;2023-08-24T07:58:12;28.65;74.32
66586;SHT30;53444;45.822;16.092;2023-08-24T08:00:40;28.65;74.99
66586;SHT30;53444;45.822;16.092;2023-08-24T08:03:07;28.58;75.17
66586;SHT30;53444;45.822;16.092;2023-08-24T08:05:34;28.69;75.25
66586;SHT30;53444;45.822;16.092;2023-08-24T08:08:00;28.86;73.85
66586;SHT30;53444;45.822;16.092;2023-08-24T08:10:27;29.03;72.47
66586;SHT30;53444;45.822;16.092;2023-08-24T08:12:53;29.10;69.46
66586;SHT30;53444;45.822;16.092;2023-08-24T08:15:20;29.21;70.44
66586;SHT30;53444;45.822;16.092;2023-08-24T08:17:48;29.11;70.35
66586;SHT30;53444;45.822;16.092;2023-08-24T08:20:15;29.37;71.42
66586;SHT30;53444;45.822;16.092;2023-08-24T08:22:42;29.51;70.54
66586;SHT30;53444;45.822;16.092;2023-08-24T08:25:09;29.48;69.87
66586;SHT30;53444;45.822;16.092;2023-08-24T08:27:37;29.65;70.51
66586;SHT30;53444;45.822;16.092;2023-08-24T08:30:05;29.74;69.60
66586;SHT30;53444;45.822;16.092;2023-08-24T08:32:32;29.88;68.81
66586;SHT30;53444;45.822;16.092;2023-08-24T08:35:01;29.92;67.33
66586;SHT30;53444;45.822;16.092;2023-08-24T08:37:30;30.09;66.86
66586;SHT30;53444;45.822;16.092;2023-08-24T08:39:57;30.19;66.76
66586;SHT30;53444;45.822;16.092;2023-08-24T08:42:23;30.04;66.99
66586;SHT30;53444;45.822;16.092;2023-08-24T08:44:51;30.22;68.39
66586;SHT30;53444;45.822;16.092;2023-08-24T08:47:20;30.21;68.30
66586;SHT30;53444;45.822;16.092;2023-08-24T08:49:48;29.75;68.39
66586;SHT30;53444;45.822;16.092;2023-08-24T08:52:16;29.77;69.17
66586;SHT30;53444;45.822;16.092;2023-08-24T08:54:43;30.08;70.11
66586;SHT30;53444;45.822;16.092;2023-08-24T08:57:09;30.04;67.55
66586;SHT30;53444;45.822;16.092;2023-08-24T08:59:36;30.28;68.19
66586;SHT30;53444;45.822;16.092;2023-08-24T09:02:03;30.44;68.40
66586;SHT30;53444;45.822;16.092;2023-08-24T09:04:31;30.55;66.74
66586;SHT30;53444;45.822;16.092;2023-08-24T09:06:58;30.64;66.67
66586;SHT30;53444;45.822;16.092;2023-08-24T09:09:27;30.55;67.39
66586;SHT30;53444;45.822;16.092;2023-08-24T09:11:54;30.70;65.97
66586;SHT30;53444;45.822;16.092;2023-08-24T09:14:21;30.91;65.48
66586;SHT30;53444;45.822;16.092;2023-08-24T09:16:47;31.01;65.64
66586;SHT30;53444;45.822;16.092;2023-08-24T09:19:15;31.01;65.68
66586;SHT30;53444;45.822;16.092;2023-08-24T09:21:42;31.30;65.28
66586;SHT30;53444;45.822;16.092;2023-08-24T09:24:10;31.48;65.67
66586;SHT30;53444;45.822;16.092;2023-08-24T09:26:39;31.46;63.76
66586;SHT30;53444;45.822;16.092;2023-08-24T09:29:12;31.04;64.22
66586;SHT30;53444;45.822;16.092;2023-08-24T09:31:39;30.62;64.31
66586;SHT30;53444;45.822;16.092;2023-08-24T09:34:06;30.93;64.93
66586;SHT30;53444;45.822;16.092;2023-08-24T09:36:34;31.31;64.56
66586;SHT30;53444;45.822;16.092;2023-08-24T09:39:01;31.30;64.26
66586;SHT30;53444;45.822;16.092;2023-08-24T09:41:41;31.71;63.19
66586;SHT30;53444;45.822;16.092;2023-08-24T09:44:08;31.96;62.01
66586;SHT30;53444;45.822;16.092;2023-08-24T09:46:35;31.92;61.56
66586;SHT30;53444;45.822;16.092;2023-08-24T09:49:04;32.34;61.66
66586;SHT30;53444;45.822;16.092;2023-08-24T09:51:32;32.56;60.76
66586;SHT30;53444;45.822;16.092;2023-08-24T09:54:00;31.72;62.92
66586;SHT30;53444;45.822;16.092;2023-08-24T09:56:28;31.45;63.58
66586;SHT30;53444;45.822;16.092;2023-08-24T09:59:00;32.13;63.86
66586;SHT30;53444;45.822;16.092;2023-08-24T10:01:30;32.64;63.44
66586;SHT30;53444;45.822;16.092;2023-08-24T10:03:59;32.83;61.58
66586;SHT30;53444;45.822;16.092;2023-08-24T10:06:27;32.95;61.41
66586;SHT30;53444;45.822;16.092;2023-08-24T10:08:58;33.24;60.92
66586;SHT30;53444;45.822;16.092;2023-08-24T10:11:30;33.21;60.51
66586;SHT30;53444;45.822;16.092;2023-08-24T10:14:07;33.48;59.89
66586;SHT30;53444;45.822;16.092;2023-08-24T10:16:35;33.51;58.76
66586;SHT30;53444;45.822;16.092;2023-08-24T10:19:02;32.70;59.39
66586;SHT30;53444;45.822;16.092;2023-08-24T10:21:30;32.90;58.84
66586;SHT30;53444;45.822;16.092;2023-08-24T10:23:57;32.40;59.98
66586;SHT30;53444;45.822;16.092;2023-08-24T10:26:24;32.80;59.82
66586;SHT30;53444;45.822;16.092;2023-08-24T10:28:51;33.32;58.77
66586;SHT30;53444;45.822;16.092;2023-08-24T10:31:19;33.75;57.25
66586;SHT30;53444;45.822;16.092;2023-08-24T10:33:47;34.12;58.42
66586;SHT30;53444;45.822;16.092;2023-08-24T10:36:14;33.89;58.80
66586;SHT30;53444;45.822;16.092;2023-08-24T10:38:42;33.97;57.91
66586;SHT30;53444;45.822;16.092;2023-08-24T10:41:10;34.19;57.47
66586;SHT30;53444;45.822;16.092;2023-08-24T10:43:40;34.27;59.50
66586;SHT30;53444;45.822;16.092;2023-08-24T10:46:12;34.48;57.26
66586;SHT30;53444;45.822;16.092;2023-08-24T10:48:57;34.36;54.96
66586;SHT30;53444;45.822;16.092;2023-08-24T10:51:25;34.58;54.30
66586;SHT30;53444;45.822;16.092;2023-08-24T10:53:55;34.65;54.56
66586;SHT30;53444;45.822;16.092;2023-08-24T10:56:30;34.98;53.00
66586;SHT30;53444;45.822;16.092;2023-08-24T10:59:10;34.54;54.35
66586;SHT30;53444;45.822;16.092;2023-08-24T11:01:38;33.55;56.00
66586;SHT30;53444;45.822;16.092;2023-08-24T11:04:07;34.32;55.35
66586;SHT30;53444;45.822;16.092;2023-08-24T11:06:34;34.88;54.20
66586;SHT30;53444;45.822;16.092;2023-08-24T11:09:09;35.09;53.17
66586;SHT30;53444;45.822;16.092;2023-08-24T11:11:39;35.25;53.35
66586;SHT30;53444;45.822;16.092;2023-08-24T11:14:16;35.75;52.23
66586;SHT30;53444;45.822;16.092;2023-08-24T11:16:45;35.82;51.71
66586;SHT30;53444;45.822;16.092;2023-08-24T11:19:14;36.07;51.30
66586;SHT30;53444;45.822;16.092;2023-08-24T11:21:42;36.07;50.35
66586;SHT30;53444;45.822;16.092;2023-08-24T11:24:10;36.01;51.64
66586;SHT30;53444;45.822;16.092;2023-08-24T11:26:42;35.97;52.68
66586;SHT30;53444;45.822;16.092;2023-08-24T11:29:09;36.04;52.02
66586;SHT30;53444;45.822;16.092;2023-08-24T11:31:37;36.08;51.86
66586;SHT30;53444;45.822;16.092;2023-08-24T11:34:04;36.36;51.94
66586;SHT30;53444;45.822;16.092;2023-08-24T11:36:41;36.24;51.43
66586;SHT30;53444;45.822;16.092;2023-08-24T11:39:14;36.19;50.58
66586;SHT30;53444;45.822;16.092;2023-08-24T11:41:41;36.38;52.26
66586;SHT30;53444;45.822;16.092;2023-08-24T11:44:08;36.44;50.91
66586;SHT30;53444;45.822;16.092;2023-08-24T11:46:36;36.16;51.30
66586;SHT30;53444;45.822;16.092;2023-08-24T11:49:04;36.71;50.98
66586;SHT30;53444;45.822;16.092;2023-08-24T11:51:31;37.11;51.07
66586;SHT30;53444;45.822;16.092;2023-08-24T11:54:01;37.06;49.93
66586;SHT30;53444;45.822;16.092;2023-08-24T11:56:28;35.86;52.35
66586;SHT30;53444;45.822;16.092;2023-08-24T11:58:54;36.71;50.14
66586;SHT30;53444;45.822;16.092;2023-08-24T12:01:21;37.05;49.83
66586;SHT30;53444;45.822;16.092;2023-08-24T12:03:48;35.34;52.82
66586;SHT30;53444;45.822;16.092;2023-08-24T12:06:16;36.78;50.37
66586;SHT30;53444;45.822;16.092;2023-08-24T12:08:45;36.95;49.71
66586;SHT30;53444;45.822;16.092;2023-08-24T12:11:15;36.71;50.09
66586;SHT30;53444;45.822;16.092;2023-08-24T12:13:46;36.86;51.37
66586;SHT30;53444;45.822;16.092;2023-08-24T12:16:14;37.52;49.08
66586;SHT30;53444;45.822;16.092;2023-08-24T12:18:49;36.65;50.43
66586;SHT30;53444;45.822;16.092;2023-08-24T12:21:17;35.04;52.15
66586;SHT30;53444;45.822;16.092;2023-08-24T12:23:45;36.37;50.52
66586;SHT30;53444;45.822;16.092;2023-08-24T12:26:22;36.63;50.79
66586;SHT30;53444;45.822;16.092;2023-08-24T12:28:49;36.85;50.97
66586;SHT30;53444;45.822;16.092;2023-08-24T12:31:17;37.32;50.91
66586;SHT30;53444;45.822;16.092;2023-08-24T12:33:44;37.45;49.34
66586;SHT30;53444;45.822;16.092;2023-08-24T12:36:11;36.78;50.00
66586;SHT30;53444;45.822;16.092;2023-08-24T12:38:38;35.36;52.10
66586;SHT30;53444;45.822;16.092;2023-08-24T12:41:07;36.44;49.92
66586;SHT30;53444;45.822;16.092;2023-08-24T12:43:35;37.08;49.75
66586;SHT30;53444;45.822;16.092;2023-08-24T12:46:01;35.94;50.66
66586;SHT30;53444;45.822;16.092;2023-08-24T12:48:28;36.36;50.12
66586;SHT30;53444;45.822;16.092;2023-08-24T12:50:55;36.92;50.15
66586;SHT30;53444;45.822;16.092;2023-08-24T12:53:21;37.33;48.95
66586;SHT30;53444;45.822;16.092;2023-08-24T12:55:48;37.93;48.00
66586;SHT30;53444;45.822;16.092;2023-08-24T12:58:14;37.74;48.16
66586;SHT30;53444;45.822;16.092;2023-08-24T13:00:42;36.58;50.36
66586;SHT30;53444;45.822;16.092;2023-08-24T13:03:09;37.45;48.92
66586;SHT30;53444;45.822;16.092;2023-08-24T13:05:36;37.80;49.30
66586;SHT30;53444;45.822;16.092;2023-08-24T13:08:03;38.00;48.75
66586;SHT30;53444;45.822;16.092;2023-08-24T13:10:30;37.88;48.37
66586;SHT30;53444;45.822;16.092;2023-08-24T13:12:58;38.78;46.76
66586;SHT30;53444;45.822;16.092;2023-08-24T13:15:24;38.95;46.47
66586;SHT30;53444;45.822;16.092;2023-08-24T13:17:52;38.35;46.40
66586;SHT30;53444;45.822;16.092;2023-08-24T13:20:19;38.80;46.17
66586;SHT30;53444;45.822;16.092;2023-08-24T13:22:46;38.11;45.98
66586;SHT30;53444;45.822;16.092;2023-08-24T13:25:12;38.32;46.32
66586;SHT30;53444;45.822;16.092;2023-08-24T13:27:39;38.57;46.73
66586;SHT30;53444;45.822;16.092;2023-08-24T13:30:06;39.23;44.59
66586;SHT30;53444;45.822;16.092;2023-08-24T13:32:33;39.33;45.32
66586;SHT30;53444;45.822;16.092;2023-08-24T13:35:02;39.46;45.21
66586;SHT30;53444;45.822;16.092;2023-08-24T13:37:28;38.67;45.33
66586;SHT30;53444;45.822;16.092;2023-08-24T13:39:55;38.95;45.35
66586;SHT30;53444;45.822;16.092;2023-08-24T13:42:22;38.92;46.30
66586;SHT30;53444;45.822;16.092;2023-08-24T13:44:48;39.45;44.85
66586;SHT30;53444;45.822;16.092;2023-08-24T13:47:15;39.60;45.36
66586;SHT30;53444;45.822;16.092;2023-08-24T13:49:42;36.38;48.57
66586;SHT30;53444;45.822;16.092;2023-08-24T13:52:10;38.04;46.43
66586;SHT30;53444;45.822;16.092;2023-08-24T13:54:37;38.64;44.70
66586;SHT30;53444;45.822;16.092;2023-08-24T13:57:04;39.22;43.29
66586;SHT30;53444;45.822;16.092;2023-08-24T13:59:31;39.02;42.65
66586;SHT30;53444;45.822;16.092;2023-08-24T14:01:58;37.30;45.56
66586;SHT30;53444;45.822;16.092;2023-08-24T14:04:25;37.83;45.85
66586;SHT30;53444;45.822;16.092;2023-08-24T14:06:51;38.42;45.51
66586;SHT30;53444;45.822;16.092;2023-08-24T14:09:19;38.78;45.73
66586;SHT30;53444;45.822;16.092;2023-08-24T14:11:47;39.27;44.23
66586;SHT30;53444;45.822;16.092;2023-08-24T14:14:14;39.12;43.35
66586;SHT30;53444;45.822;16.092;2023-08-24T14:16:40;37.63;46.03
66586;SHT30;53444;45.822;16.092;2023-08-24T14:19:07;39.16;44.24
66586;SHT30;53444;45.822;16.092;2023-08-24T14:21:34;39.20;42.98
66586;SHT30;53444;45.822;16.092;2023-08-24T14:24:01;39.26;43.82
66586;SHT30;53444;45.822;16.092;2023-08-24T14:26:29;38.27;45.47
66586;SHT30;53444;45.822;16.092;2023-08-24T14:28:57;39.16;43.94
66586;SHT30;53444;45.822;16.092;2023-08-24T14:31:26;39.60;43.41
66586;SHT30;53444;45.822;16.092;2023-08-24T14:33:53;39.27;43.47
66586;SHT30;53444;45.822;16.092;2023-08-24T14:36:20;39.66;42.89
66586;SHT30;53444;45.822;16.092;2023-08-24T14:38:47;40.05;43.39
66586;SHT30;53444;45.822;16.092;2023-08-24T14:41:14;40.32;42.32
66586;SHT30;53444;45.822;16.092;2023-08-24T14:43:42;40.51;41.45
66586;SHT30;53444;45.822;16.092;2023-08-24T14:46:09;39.84;42.79
66586;SHT30;53444;45.822;16.092;2023-08-24T14:48:36;39.26;44.51
66586;SHT30;53444;45.822;16.092;2023-08-24T14:51:03;39.15;44.84
66586;SHT30;53444;45.822;16.092;2023-08-24T14:53:29;40.24;43.54
66586;SHT30;53444;45.822;16.092;2023-08-24T14:55:56;39.35;44.40
66586;SHT30;53444;45.822;16.092;2023-08-24T14:58:24;37.37;48.00
66586;SHT30;53444;45.822;16.092;2023-08-24T15:00:55;38.25;46.78
66586;SHT30;53444;45.822;16.092;2023-08-24T15:03:22;40.14;43.55
66586;SHT30;53444;45.822;16.092;2023-08-24T15:05:56;41.03;41.75
66586;SHT30;53444;45.822;16.092;2023-08-24T15:08:23;38.94;44.93
66586;SHT30;53444;45.822;16.092;2023-08-24T15:10:50;39.53;43.87
66586;SHT30;53444;45.822;16.092;2023-08-24T15:13:16;41.07;42.47
66586;SHT30;53444;45.822;16.092;2023-08-24T15:15:43;41.13;41.39
66586;SHT30;53444;45.822;16.092;2023-08-24T15:18:11;40.38;42.71